Marcolorado — V2EY5 — position and weather

sailwx.info

Track history (hours):
 
Tides and Currents Weather Stations Pressure Air Temp Water Temp Dewpoint Dewpoint Depression Visibility Wind Speed Wind Dir Waves Ship Positions

Marcolorado

Last reported at 2016-May-21 20:11 UTC. Time now 2016-May-31 16:06 UTC.
Position N 35°25' W 007°55'.
Warning: this ship's position is 9 days out of date.

Length 185 m; draft 9.5 m.

Type: Cargo ship. MMSI: 305599000.

Date/timePositionNaut miles runAvg speedWind from/ knotsBaromVisibWave heightAir tempDewpointWater temp
2016-May-21 20:11N 35°25' W 007°55'12112.6
2016-May-21 10:33N 35°59' W 005°31'1111.3
2016-May-21 09:33N 36°02' W 005°18'19212.8
2016-May-20 18:30N 36°33' W 001°22'1412.2
2016-May-20 17:19N 36°36' W 001°05'1513.4
2016-May-20 16:10N 36°38' W 000°46'4713.0
2016-May-20 12:33N 36°46' E 000°12'50812.3
2016-May-18 19:08N 37°32' E 010°47'2512.4
2016-May-18 17:06N 37°24' E 011°17'713.1
2016-May-18 16:32N 37°21' E 011°25'1313.1
2016-May-18 15:33N 37°14' E 011°39'1413.2
2016-May-18 14:31N 37°07' E 011°54'1813.1
2016-May-18 13:08N 36°58' E 012°14'712.8
2016-May-18 12:33N 36°55' E 012°22'1712.6
2016-May-18 11:11N 36°48' E 012°42'812.4
2016-May-18 10:33N 36°44' E 012°50'1212.5
2016-May-18 09:33N 36°38' E 013°04'1313.1
2016-May-18 08:33N 36°33' E 013°19'1413.5
2016-May-18 07:33N 36°27' E 013°34'1413.8
2016-May-18 06:33N 36°20' E 013°49'1413.5
2016-May-18 05:33N 36°14' E 014°04'1313.2
2016-May-18 04:33N 36°08' E 014°19'1312.8
2016-May-18 03:33N 36°00' E 014°31'9 9.2
2016-May-18 02:33N 35°53' E 014°37'2 2.1
2016-May-18 01:24N 35°50' E 014°36'0 0.0
2016-May-18 00:33N 35°50' E 014°36'0 0.0
2016-May-17 23:33N 35°50' E 014°36'0 0.0
2016-May-17 22:33N 35°50' E 014°36'0 0.0
2016-May-17 21:33N 35°50' E 014°36'0 0.0
2016-May-17 20:33N 35°50' E 014°36'0 0.0
2016-May-17 19:33N 35°50' E 014°36'0 0.3
2016-May-17 18:33N 35°50' E 014°36'8 8.2
2016-May-17 17:33N 35°52' E 014°46'1312.6
2016-May-17 16:33N 35°54' E 015°02'1212.4
2016-May-17 15:33N 35°53' E 015°17'  
Track history (hours):
 
Tides and Currents Weather Stations Pressure Air Temp Water Temp Dewpoint Dewpoint Depression Visibility Wind Speed Wind Dir Waves Ship Positions

Marcolorado

Last reported at 2016-May-21 20:11 UTC. Time now 2016-May-31 16:06 UTC.
Position N 35°25' W 007°55'.
Warning: this ship's position is 9 days out of date.

Length 185 m; draft 9.5 m.

Type: Cargo ship. MMSI: 305599000.

Date/timePositionNaut miles runAvg speedWind from/ knotsBaromVisibWave heightAir tempDewpointWater temp
2016-May-21 20:11N 35°25' W 007°55'12112.6
2016-May-21 10:33N 35°59' W 005°31'1111.3
2016-May-21 09:33N 36°02' W 005°18'19212.8
2016-May-20 18:30N 36°33' W 001°22'1412.2
2016-May-20 17:19N 36°36' W 001°05'1513.4
2016-May-20 16:10N 36°38' W 000°46'4713.0
2016-May-20 12:33N 36°46' E 000°12'50812.3
2016-May-18 19:08N 37°32' E 010°47'2512.4
2016-May-18 17:06N 37°24' E 011°17'713.1
2016-May-18 16:32N 37°21' E 011°25'1313.1
2016-May-18 15:33N 37°14' E 011°39'1413.2
2016-May-18 14:31N 37°07' E 011°54'1813.1
2016-May-18 13:08N 36°58' E 012°14'712.8
2016-May-18 12:33N 36°55' E 012°22'1712.6
2016-May-18 11:11N 36°48' E 012°42'812.4
2016-May-18 10:33N 36°44' E 012°50'1212.5
2016-May-18 09:33N 36°38' E 013°04'1313.1
2016-May-18 08:33N 36°33' E 013°19'1413.5
2016-May-18 07:33N 36°27' E 013°34'1413.8
2016-May-18 06:33N 36°20' E 013°49'1413.5
2016-May-18 05:33N 36°14' E 014°04'1313.2
2016-May-18 04:33N 36°08' E 014°19'1312.8
2016-May-18 03:33N 36°00' E 014°31'9 9.2
2016-May-18 02:33N 35°53' E 014°37'2 2.1
2016-May-18 01:24N 35°50' E 014°36'0 0.0
2016-May-18 00:33N 35°50' E 014°36'0 0.0
2016-May-17 23:33N 35°50' E 014°36'0 0.0
2016-May-17 22:33N 35°50' E 014°36'0 0.0
2016-May-17 21:33N 35°50' E 014°36'0 0.0
2016-May-17 20:33N 35°50' E 014°36'0 0.0
2016-May-17 19:33N 35°50' E 014°36'0 0.3
2016-May-17 18:33N 35°50' E 014°36'8 8.2
2016-May-17 17:33N 35°52' E 014°46'1312.6
2016-May-17 16:33N 35°54' E 015°02'1212.4
2016-May-17 15:33N 35°53' E 015°17'  

Dump ship's entire track history